Terminal Aerodrome Forecast
Issued by NWS Austin/San Antonio, TX

Current Version | Previous Version | Text Only | Print | Product List | Glossary On
Versions: 1 2 3 4 5 6 7 8 9 10 11 12 13 14 15 16 17 18 19 20 21 22 23 24
000
FTUS44 KEWX 260932 AAB
TAFAUS
TAF AMD
KAUS 260932Z 2610/2712 20005KT P6SM OVC010
      TEMPO 2610/2614 OVC009
     FM261500 18005KT P6SM OVC020
     FM261700 16012KT P6SM OVC040
     FM270500 16005KT P6SM OVC010 PROB30 2708/2712 4SM TSRA
      OVC010CB=

USA.gov is the U.S. government's official web portal to all federal, state and local government web resources and services.